Stations météo

réclame
Mon MeteoGroup
Tarifa, Espagne (8458): Température de l'air & dewpoint: 11.11.2017 23:00:00 - 17.11.2017 23:00:00 (CET)Tarifa, Espagne (8458): Vitesse du vent & gusts: 11.11.2017 23:00:00 - 17.11.2017 23:00:00 (CET)Tarifa, Espagne (8458): Direction du vent: 11.11.2017 23:00:00 - 17.11.2017 23:00:00 (CET)Tarifa, Espagne (8458): Quantités de précipitations: 11.11.2017 23:00:00 - 17.11.2017 23:00:00 (CET)
Date & Time tt [°C] td [°C] ff [km/h] ff [knt] fx [km/h] fx [knt] dd rr [mm]
17.11.2017 23:00:00 17,2 14,6 27 14 44 24 E 0,0
17.11.2017 22:00:00 17,2 15,2 23 13 39 21 E 0,0
17.11.2017 21:00:00 17,2 15,5 21 11 42 23 E 0,0
17.11.2017 20:00:00 17,3 15,8 23 12 39 21 E 0,0
17.11.2017 19:00:00 17,8 16,1 16 9 37 20 E -
17.11.2017 18:00:00 18,2 16,6 24 13 40 22 E 0,0
17.11.2017 17:00:00 18,0 15,6 27 14 40 22 E 0,0
17.11.2017 16:00:00 19,8 16,6 27 15 40 22 E 0,0
17.11.2017 15:00:00 20,7 16,6 25 14 38 20 E 0,0
17.11.2017 14:00:00 19,6 15,4 23 13 43 23 E 0,0
17.11.2017 13:00:00 20,5 16,1 26 14 45 24 E -
17.11.2017 12:00:00 19,3 15,5 27 14 41 22 E 0,0
17.11.2017 11:00:00 20,2 16,5 23 13 40 22 E 0,0
17.11.2017 10:00:00 18,0 15,3 22 12 39 21 ESE 0,0
17.11.2017 09:00:00 16,9 14,9 22 12 39 21 E 0,0
17.11.2017 08:00:00 - - - - - - - -
17.11.2017 07:00:00 16,2 13,9 17 9 41 22 ESE -
17.11.2017 06:00:00 16,6 14,0 24 13 41 22 E 0,0
17.11.2017 05:00:00 16,4 14,2 23 13 39 21 ESE 0,0
17.11.2017 04:00:00 16,3 14,6 23 13 45 25 ESE 0,0
17.11.2017 03:00:00 16,8 14,6 29 15 46 25 E 0,0
17.11.2017 02:00:00 17,0 14,8 26 14 42 23 E 0,0
17.11.2017 01:00:00 17,0 15,0 21 11 36 20 E -
17.11.2017 00:00:00 17,0 15,2 19 11 35 19 E 0,0
16.11.2017 23:00:00 16,8 15,7 16 9 29 15 E 0,0
16.11.2017 22:00:00 16,7 15,9 18 10 36 20 E 0,0
16.11.2017 21:00:00 17,7 16,6 25 14 35 19 E 0,0
16.11.2017 20:00:00 17,8 16,3 20 11 30 16 E 0,0
16.11.2017 19:00:00 17,9 16,4 18 10 29 16 E -
16.11.2017 18:00:00 18,5 16,3 18 10 32 17 E 0,0
16.11.2017 17:00:00 19,5 16,1 22 12 34 18 E 0,0
16.11.2017 16:00:00 20,0 16,5 23 13 36 20 E 0,0
16.11.2017 15:00:00 20,6 16,6 21 11 35 19 E 0,0
16.11.2017 14:00:00 19,4 15,1 21 11 32 18 E 0,0
16.11.2017 13:00:00 20,8 15,8 21 11 34 19 E -
16.11.2017 12:00:00 19,6 14,8 21 12 36 19 E 0,0
16.11.2017 11:00:00 19,0 14,7 24 13 37 20 E 0,0
16.11.2017 10:00:00 19,4 15,7 19 10 33 18 E 0,0
16.11.2017 09:00:00 18,5 15,7 19 10 32 17 E 0,0
16.11.2017 08:00:00 17,5 15,5 21 11 37 20 E 0,0
16.11.2017 07:00:00 17,5 15,2 23 13 36 19 E -
16.11.2017 06:00:00 17,3 14,7 21 12 38 21 E 0,0
16.11.2017 05:00:00 17,5 15,0 22 12 39 21 ESE 0,0
16.11.2017 04:00:00 17,6 15,1 24 13 40 22 E 0,0
16.11.2017 03:00:00 16,8 14,2 27 15 43 23 E 0,0
16.11.2017 02:00:00 16,7 13,9 24 13 - - E -
16.11.2017 01:00:00 16,7 13,8 23 12 39 21 E -
16.11.2017 00:00:00 16,9 13,3 22 12 40 21 E 0,0
15.11.2017 23:00:00 17,3 12,8 25 13 42 23 E 0,0
15.11.2017 22:00:00 17,3 12,8 27 15 43 23 E 0,0
15.11.2017 21:00:00 18,1 13,8 25 14 37 20 E 0,0
15.11.2017 20:00:00 18,3 13,8 22 12 36 19 E 0,0
15.11.2017 19:00:00 18,4 13,7 25 13 39 21 E -
15.11.2017 18:00:00 18,7 13,4 23 12 39 21 E 0,0
15.11.2017 17:00:00 19,5 13,3 28 15 42 23 E 0,0
15.11.2017 16:00:00 20,0 13,3 27 14 46 25 E 0,0
15.11.2017 15:00:00 20,2 13,9 32 17 51 27 E 0,0
15.11.2017 14:00:00 20,8 14,4 32 17 51 28 E 0,0
15.11.2017 13:00:00 19,8 15,0 34 19 51 28 E -
15.11.2017 12:00:00 20,7 16,3 36 19 55 30 E 0,0
15.11.2017 11:00:00 18,6 14,9 31 17 50 27 E 0,0
15.11.2017 10:00:00 18,2 15,6 29 16 55 30 E 0,0
15.11.2017 09:00:00 17,9 15,9 31 17 54 29 E 0,0
15.11.2017 08:00:00 17,2 15,7 26 14 45 24 ESE 0,0
15.11.2017 07:00:00 17,5 16,0 30 16 49 26 E -
15.11.2017 06:00:00 17,9 16,2 29 16 53 28 E 0,0
15.11.2017 05:00:00 18,6 14,5 32 18 47 25 E 0,0
15.11.2017 04:00:00 19,2 14,4 31 17 49 26 E 0,0
15.11.2017 03:00:00 18,3 16,3 26 14 44 24 E 0,0
15.11.2017 02:00:00 18,1 15,5 25 14 43 23 ESE 0,0
15.11.2017 01:00:00 18,9 15,5 27 15 44 24 ESE -
15.11.2017 00:00:00 18,9 16,3 21 12 35 19 ESE 0,0
14.11.2017 23:00:00 18,9 16,0 17 9 29 16 ESE 0,0
14.11.2017 22:00:00 18,8 15,4 15 8 31 17 ESE 0,0
14.11.2017 21:00:00 18,7 16,0 16 9 32 17 ESE 0,0
14.11.2017 20:00:00 19,1 16,5 16 9 32 17 E 0,0
14.11.2017 19:00:00 18,0 13,3 6 3 8 4 ESE -
14.11.2017 18:00:00 20,0 13,9 1 1 13 7 SW 0,0
14.11.2017 17:00:00 19,2 13,9 7 4 14 8 WSW 0,0
14.11.2017 16:00:00 20,1 16,0 8 4 17 9 WSW 0,0
14.11.2017 15:00:00 20,9 16,7 8 4 16 8 WSW 0,0
14.11.2017 14:00:00 20,7 17,1 11 6 21 11 WSW 0,0
14.11.2017 13:00:00 20,2 16,6 9 5 14 8 WSW -
14.11.2017 12:00:00 19,3 15,8 7 4 12 7 WSW 0,0
14.11.2017 11:00:00 19,3 14,8 5 3 10 5 WSW 0,0
14.11.2017 10:00:00 18,1 13,4 5 3 8 5 SW 0,0
14.11.2017 09:00:00 14,4 14,2 6 3 9 5 S 0,0
14.11.2017 08:00:00 13,3 13,2 8 4 11 6 SSE 0,0
14.11.2017 07:00:00 12,5 12,3 6 3 10 5 SSE -
14.11.2017 06:00:00 12,4 12,2 7 4 9 5 SSE 0,0
14.11.2017 05:00:00 11,9 11,4 7 4 11 6 SSE 0,0
14.11.2017 04:00:00 11,9 11,3 10 5 12 6 SSE 0,0
14.11.2017 03:00:00 12,6 11,7 6 3 10 5 SSE 0,0
14.11.2017 02:00:00 13,7 12,1 6 3 12 6 SSE 0,0
14.11.2017 01:00:00 12,9 11,3 8 5 12 6 S -
14.11.2017 00:00:00 14,5 12,7 5 3 10 6 SSW 0,0
13.11.2017 23:00:00 16,1 13,1 9 5 14 8 S 0,0
13.11.2017 22:00:00 16,5 13,9 7 4 14 7 SSW 0,0
13.11.2017 21:00:00 16,6 14,4 10 5 17 9 SSW 0,0
13.11.2017 20:00:00 18,0 16,0 9 5 29 16 SW 0,0
13.11.2017 19:00:00 18,5 16,6 20 11 30 16 WSW -
13.11.2017 18:00:00 18,8 16,8 16 8 37 20 WSW 0,0
13.11.2017 17:00:00 19,3 16,9 24 13 38 20 WSW 0,0
13.11.2017 16:00:00 19,8 17,5 19 11 34 19 WSW 0,0
13.11.2017 15:00:00 20,0 17,9 18 10 37 20 WSW 0,0
13.11.2017 14:00:00 20,1 18,2 21 11 34 18 WSW 0,0
13.11.2017 13:00:00 19,2 16,4 18 10 28 15 WSW -
13.11.2017 12:00:00 20,1 16,3 16 9 32 17 WSW 0,0
13.11.2017 11:00:00 20,0 19,0 24 13 36 19 WSW 0,0
13.11.2017 10:00:00 19,1 18,5 20 11 32 17 WSW 0,0
13.11.2017 09:00:00 16,8 16,0 9 5 16 8 SSW 0,0
13.11.2017 08:00:00 16,6 16,1 10 5 18 10 SSW 0,0
13.11.2017 07:00:00 16,5 15,9 9 5 16 9 SSW -
13.11.2017 06:00:00 17,7 17,2 10 5 16 9 WSW 0,0
13.11.2017 05:00:00 18,8 18,3 13 7 30 16 SW 0,0
13.11.2017 04:00:00 18,9 18,1 19 10 31 17 SW 0,0
13.11.2017 03:00:00 18,5 17,7 10 6 19 10 WSW 0,0
13.11.2017 02:00:00 18,1 16,2 7 4 22 12 SW 0,0
13.11.2017 01:00:00 17,8 14,7 15 8 22 12 SW -
13.11.2017 00:00:00 15,4 13,3 12 7 19 10 S 0,0
12.11.2017 23:00:00 16,9 13,1 13 7 19 10 SSW 0,0
12.11.2017 22:00:00 17,1 14,0 9 5 16 9 SSW 0,0
12.11.2017 21:00:00 18,2 15,4 9 5 16 9 SSW 0,0
12.11.2017 20:00:00 19,1 16,3 11 6 26 14 SW 0,0
12.11.2017 19:00:00 19,7 16,9 16 9 25 14 WSW -
12.11.2017 18:00:00 20,0 16,5 17 9 35 19 WSW 0,0
12.11.2017 17:00:00 20,3 16,3 18 10 34 18 WSW 0,0
12.11.2017 16:00:00 20,8 19,4 21 12 33 18 W 0,0
12.11.2017 15:00:00 21,4 19,3 19 11 34 18 WSW 0,0
12.11.2017 14:00:00 21,3 19,1 21 11 36 19 WSW 0,0
12.11.2017 13:00:00 20,5 17,5 22 12 31 17 WSW -
12.11.2017 12:00:00 20,5 15,7 16 9 26 14 WSW 0,0
12.11.2017 11:00:00 19,6 15,4 11 6 18 10 WSW 0,0
12.11.2017 10:00:00 19,0 16,4 5 3 8 4 WSW 0,0
12.11.2017 09:00:00 15,8 14,7 1 0 8 5 SE 0,0
12.11.2017 08:00:00 14,2 13,3 7 4 9 5 ESE 0,0
12.11.2017 07:00:00 16,0 13,9 6 3 10 6 ESE -
12.11.2017 06:00:00 16,5 13,8 9 5 10 6 ESE 0,0
12.11.2017 05:00:00 16,5 13,1 5 3 17 9 SSE 0,0
12.11.2017 04:00:00 15,8 13,3 9 5 18 10 E 0,0
12.11.2017 03:00:00 12,7 10,3 6 3 11 6 SE 0,0
12.11.2017 02:00:00 12,8 10,2 4 2 8 4 ESE 0,0
12.11.2017 01:00:00 14,2 11,0 5 3 12 6 SSE -
12.11.2017 00:00:00 14,6 11,8 9 5 11 6 SE 0,0
11.11.2017 23:00:00 14,8 12,8 6 3 9 5 SE 0,0

tt = Température de l'air
td = dewpoint
ff = Vitesse du vent
fx = gusts
dd = Direction du vent
rr = Quantités de précipitations

stations d'obs. à proximité